Time;durP1;ratioP1;P1;durP2;ratioP2;P2;SDS_P1;SDS_P2;PMS_P1;PMS_P2;Temp;Humidity;BMP_temperature;BMP_pressure;BME280_temperature;BME280_humidity;BME280_pressure;Samples;Min_cycle;Max_cycle;Signal;HPM_P1;HPM_P2
2021/07/31 00:00:20;;;;;;;5.13;4.57;;;21.90;99.90;;;;;;6160390;23;20821;-42
2021/07/31 00:02:47;;;;;;;6.87;5.30;;;21.90;99.90;;;;;;6160130;23;20406;-47
2021/07/31 00:05:14;;;;;;;15.00;5.30;;;21.80;99.90;;;;;;6159323;23;20907;-43
2021/07/31 00:07:42;;;;;;;8.03;5.23;;;21.80;99.90;;;;;;6159946;23;20421;-42
2021/07/31 00:10:10;;;;;;;17.27;5.03;;;21.80;99.90;;;;;;6159923;23;20496;-45
2021/07/31 00:12:37;;;;;;;5.20;4.70;;;21.80;99.90;;;;;;6160080;23;20707;-47
2021/07/31 00:15:07;;;;;;;17.73;5.47;;;21.80;99.90;;;;;;6159923;23;20464;-44
2021/07/31 00:17:33;;;;;;;8.57;4.47;;;21.80;99.90;;;;;;6160943;23;20783;-41
2021/07/31 00:20:00;;;;;;;5.67;5.07;;;21.70;99.90;;;;;;6159944;23;20864;-46
2021/07/31 00:22:27;;;;;;;9.73;5.57;;;21.60;99.90;;;;;;6160157;23;20413;-43
2021/07/31 00:24:53;;;;;;;11.30;4.90;;;21.60;99.90;;;;;;6160052;23;20422;-46
2021/07/31 00:27:20;;;;;;;5.43;4.93;;;21.50;99.90;;;;;;6159823;23;20406;-49
2021/07/31 00:29:47;;;;;;;5.40;4.63;;;21.50;99.90;;;;;;6160248;23;20414;-41
2021/07/31 00:32:15;;;;;;;5.60;4.50;;;21.50;99.90;;;;;;6159764;23;20480;-44
2021/07/31 00:34:42;;;;;;;4.93;4.07;;;21.50;99.90;;;;;;6159336;23;20931;-42
2021/07/31 00:37:08;;;;;;;8.73;5.00;;;21.50;99.90;;;;;;6159678;23;20437;-45
2021/07/31 00:39:39;;;;;;;6.13;5.17;;;21.50;99.90;;;;;;6159527;23;20438;-45
2021/07/31 00:42:06;;;;;;;6.70;5.10;;;21.50;99.90;;;;;;6159686;23;20421;-48
2021/07/31 00:44:33;;;;;;;6.67;5.00;;;21.50;99.90;;;;;;6159397;23;20419;-44
2021/07/31 00:46:59;;;;;;;4.53;3.97;;;21.50;99.90;;;;;;6159735;23;20401;-47
2021/07/31 00:49:28;;;;;;;5.63;5.03;;;21.40;99.90;;;;;;6159737;23;20739;-46
2021/07/31 00:51:55;;;;;;;9.20;4.77;;;21.40;99.90;;;;;;6159507;23;20409;-46
2021/07/31 00:54:22;;;;;;;13.30;4.53;;;21.40;99.90;;;;;;6159447;23;20417;-43
2021/07/31 00:56:49;;;;;;;6.20;4.37;;;21.30;99.90;;;;;;6159394;23;20928;-47
2021/07/31 00:59:16;;;;;;;5.40;4.37;;;21.30;99.90;;;;;;6159369;23;20406;-45
2021/07/31 01:01:43;;;;;;;5.47;4.00;;;21.30;99.90;;;;;;6159379;23;20427;-46
2021/07/31 01:04:09;;;;;;;4.80;4.30;;;21.20;99.90;;;;;;6159351;23;20709;-45
2021/07/31 01:06:38;;;;;;;6.43;4.30;;;21.20;99.90;;;;;;6159206;23;20727;-49
2021/07/31 01:09:05;;;;;;;5.63;5.03;;;21.20;99.90;;;;;;6159927;23;20409;-45
2021/07/31 01:11:34;;;;;;;6.30;4.27;;;21.10;99.90;;;;;;6159816;23;20429;-44
2021/07/31 01:14:01;;;;;;;5.87;4.77;;;21.10;99.90;;;;;;6160127;23;20472;-47
2021/07/31 01:16:28;;;;;;;7.97;3.93;;;21.10;99.90;;;;;;6159441;23;20464;-45
2021/07/31 01:18:54;;;;;;;9.80;3.80;;;21.10;99.90;;;;;;6159643;23;20405;-45
2021/07/31 01:21:36;;;;;;;5.57;4.63;;;21.00;99.90;;;;;;6159795;23;20472;-45
2021/07/31 01:24:03;;;;;;;10.13;5.50;;;21.10;99.90;;;;;;6159827;23;20681;-44
2021/07/31 01:26:30;;;;;;;4.90;3.87;;;21.00;99.90;;;;;;6159313;23;20413;-41
2021/07/31 01:28:57;;;;;;;12.00;7.17;;;20.90;99.90;;;;;;6159503;23;20406;-53
2021/07/31 01:31:24;;;;;;;5.83;4.70;;;20.90;99.90;;;;;;6159054;23;20476;-44
2021/07/31 01:33:50;;;;;;;6.40;4.57;;;20.90;99.90;;;;;;6159488;23;20770;-41
2021/07/31 01:36:20;;;;;;;6.80;4.80;;;20.90;99.90;;;;;;6159799;23;20935;-45
2021/07/31 01:38:48;;;;;;;5.27;4.40;;;20.90;99.90;;;;;;6160008;23;20449;-44
2021/07/31 01:41:15;;;;;;;9.20;5.23;;;20.80;99.90;;;;;;6158731;23;20504;-41
2021/07/31 01:43:42;;;;;;;8.50;5.10;;;20.80;99.90;;;;;;6158888;23;20472;-46
2021/07/31 01:46:09;;;;;;;5.90;4.37;;;20.90;99.90;;;;;;6159087;23;20727;-42
2021/07/31 01:48:35;;;;;;;4.57;4.17;;;20.90;99.90;;;;;;6159713;23;20757;-43
2021/07/31 01:51:02;;;;;;;13.40;5.70;;;20.80;99.90;;;;;;6159783;23;20488;-44
2021/07/31 01:53:29;;;;;;;7.60;4.17;;;20.80;99.90;;;;;;6159133;23;20441;-42
2021/07/31 01:55:57;;;;;;;5.97;5.10;;;20.80;99.90;;;;;;6159977;23;20452;-42
2021/07/31 01:58:23;;;;;;;6.90;4.13;;;20.80;99.90;;;;;;6160072;23;20449;-43
2021/07/31 02:00:53;;;;;;;8.93;4.13;;;20.90;99.90;;;;;;6159655;23;20467;-47
2021/07/31 02:03:20;;;;;;;5.30;4.90;;;20.90;99.90;;;;;;6160195;23;20484;-43
2021/07/31 02:05:47;;;;;;;8.03;4.77;;;20.90;99.90;;;;;;6160226;23;20872;-48
2021/07/31 02:08:14;;;;;;;6.93;4.70;;;20.90;99.90;;;;;;6159278;23;20406;-45
2021/07/31 02:10:40;;;;;;;8.23;4.83;;;20.90;99.90;;;;;;6159469;23;20484;-49
2021/07/31 02:13:08;;;;;;;8.30;4.97;;;20.80;99.90;;;;;;6159063;23;20441;-47
2021/07/31 02:15:39;;;;;;;7.83;5.33;;;20.80;99.90;;;;;;6161401;23;20402;-46
2021/07/31 02:18:05;;;;;;;9.70;4.87;;;20.70;99.90;;;;;;6161647;23;20433;-46
2021/07/31 02:20:32;;;;;;;6.27;5.17;;;20.60;99.90;;;;;;6162097;23;20417;-45
2021/07/31 02:22:59;;;;;;;8.17;4.93;;;20.60;99.90;;;;;;6161410;23;20416;-46
2021/07/31 02:25:26;;;;;;;11.50;5.30;;;20.60;99.90;;;;;;6161450;23;20409;-49
2021/07/31 02:27:52;;;;;;;8.70;4.63;;;20.60;99.90;;;;;;6161015;23;20484;-48
2021/07/31 02:30:20;;;;;;;6.20;4.90;;;20.60;99.90;;;;;;6161174;23;20406;-50
2021/07/31 02:32:47;;;;;;;7.13;4.77;;;20.50;99.90;;;;;;6161801;23;20413;-44
2021/07/31 02:35:17;;;;;;;6.43;4.73;;;20.50;99.90;;;;;;6161370;23;20409;-45
2021/07/31 02:37:44;;;;;;;7.47;4.10;;;20.50;99.90;;;;;;6161575;23;20516;-44
2021/07/31 02:40:11;;;;;;;6.50;4.23;;;20.50;99.90;;;;;;6161248;23;20492;-43
2021/07/31 02:42:38;;;;;;;6.03;4.57;;;20.60;99.90;;;;;;6161717;23;20409;-45
2021/07/31 02:45:06;;;;;;;5.43;3.90;;;20.60;99.90;;;;;;6161575;23;20421;-46
2021/07/31 02:47:34;;;;;;;4.17;3.43;;;20.60;99.90;;;;;;6161417;23;20401;-47
2021/07/31 02:50:01;;;;;;;4.50;3.90;;;20.60;99.90;;;;;;6161848;23;20714;-44
2021/07/31 02:52:28;;;;;;;5.57;4.13;;;20.60;99.90;;;;;;6161448;23;20417;-48
2021/07/31 02:54:55;;;;;;;5.10;3.60;;;20.70;99.90;;;;;;6161341;23;20401;-48
2021/07/31 02:57:21;;;;;;;4.17;3.60;;;20.70;99.90;;;;;;6160989;23;20481;-43
2021/07/31 02:59:48;;;;;;;5.30;3.20;;;20.70;99.90;;;;;;6161417;23;20911;-43
2021/07/31 03:02:14;;;;;;;3.73;3.13;;;20.80;99.90;;;;;;6161273;23;20468;-45
2021/07/31 03:04:46;;;;;;;3.87;3.10;;;20.80;99.90;;;;;;6160992;23;20413;-48
2021/07/31 03:07:13;;;;;;;4.00;3.20;;;20.80;99.90;;;;;;6161336;23;20444;-49
2021/07/31 03:09:43;;;;;;;7.30;3.00;;;20.80;99.90;;;;;;6161622;23;20425;-42
2021/07/31 03:12:09;;;;;;;4.60;3.27;;;20.80;99.90;;;;;;6161114;23;20461;-44
2021/07/31 03:14:36;;;;;;;5.83;3.90;;;20.80;99.90;;;;;;6162148;23;20476;-46
2021/07/31 03:17:04;;;;;;;3.97;3.57;;;20.80;99.90;;;;;;6161121;23;20709;-41
2021/07/31 03:19:31;;;;;;;5.67;3.47;;;20.80;99.90;;;;;;6160515;23;20410;-42
2021/07/31 03:21:59;;;;;;;5.33;3.10;;;20.80;99.90;;;;;;6161013;23;20405;-45
2021/07/31 03:24:26;;;;;;;4.30;2.90;;;20.80;99.90;;;;;;6160285;23;20468;-43
2021/07/31 03:26:52;;;;;;;2.93;2.40;;;20.70;99.90;;;;;;6161214;23;20790;-44
2021/07/31 03:29:19;;;;;;;7.20;3.53;;;20.80;99.90;;;;;;6161011;23;20416;-46
2021/07/31 03:31:45;;;;;;;3.63;2.40;;;20.70;99.90;;;;;;6160626;23;20406;-46
2021/07/31 03:34:13;;;;;;;4.23;3.00;;;20.70;99.90;;;;;;6160764;23;20425;-47
2021/07/31 03:36:40;;;;;;;3.60;3.00;;;20.60;99.90;;;;;;6160547;23;20899;-44
2021/07/31 03:39:08;;;;;;;3.20;2.80;;;20.60;99.90;;;;;;6160568;23;20504;-43
2021/07/31 03:41:34;;;;;;;3.83;3.10;;;20.60;99.90;;;;;;6160792;23;20406;-46
2021/07/31 03:44:01;;;;;;;2.93;2.57;;;20.60;99.90;;;;;;6160776;23;20441;-47
2021/07/31 03:46:28;;;;;;;3.07;2.57;;;20.50;99.90;;;;;;6160841;23;20674;-47
2021/07/31 03:48:54;;;;;;;5.87;3.07;;;20.50;99.90;;;;;;6160322;23;20893;-42
2021/07/31 03:51:21;;;;;;;4.47;2.70;;;20.50;99.90;;;;;;6161400;23;20418;-48
2021/07/31 03:53:48;;;;;;;5.07;2.90;;;20.50;99.90;;;;;;6160969;23;20464;-43
2021/07/31 03:56:16;;;;;;;3.13;2.63;;;20.40;99.90;;;;;;6161041;23;20476;-49
2021/07/31 03:58:42;;;;;;;7.60;3.20;;;20.40;99.90;;;;;;6161036;23;20904;-45
2021/07/31 04:01:09;;;;;;;3.93;2.43;;;20.40;99.90;;;;;;6160949;23;20467;-44
2021/07/31 04:03:35;;;;;;;3.00;2.70;;;20.30;99.90;;;;;;6161214;23;20433;-44
2021/07/31 04:06:02;;;;;;;2.70;2.50;;;20.30;99.90;;;;;;6160692;23;20405;-43
2021/07/31 04:08:29;;;;;;;3.60;3.07;;;20.30;99.90;;;;;;6160850;23;20422;-47
2021/07/31 04:10:55;;;;;;;6.03;2.73;;;20.30;99.90;;;;;;6160932;23;20402;-49
2021/07/31 04:13:23;;;;;;;4.57;2.90;;;20.20;99.90;;;;;;6161138;23;20860;-47
2021/07/31 04:15:50;;;;;;;3.00;2.37;;;20.20;99.90;;;;;;6159555;23;20433;-48
2021/07/31 04:18:19;;;;;;;2.77;2.57;;;20.20;99.90;;;;;;6158615;23;20446;-47
2021/07/31 04:20:46;;;;;;;2.67;2.10;;;20.20;99.90;;;;;;6158614;23;20409;-45
2021/07/31 04:23:13;;;;;;;3.70;2.90;;;20.10;99.90;;;;;;6158964;23;20406;-46
2021/07/31 04:25:39;;;;;;;2.53;2.17;;;20.20;99.90;;;;;;6158396;23;20410;-50
2021/07/31 04:28:06;;;;;;;2.93;1.97;;;20.20;99.90;;;;;;6158465;23;20461;-45
2021/07/31 04:30:35;;;;;;;3.07;2.57;;;20.20;99.90;;;;;;6158741;23;20405;-48
2021/07/31 04:33:01;;;;;;;3.70;2.60;;;20.20;99.90;;;;;;6158802;23;20405;-45
2021/07/31 04:35:28;;;;;;;3.20;1.80;;;20.20;99.90;;;;;;6158954;23;20472;-48
2021/07/31 04:37:55;;;;;;;3.70;2.50;;;20.20;99.90;;;;;;6157990;23;20496;-46
2021/07/31 04:40:22;;;;;;;2.60;2.40;;;20.20;99.90;;;;;;6158641;23;20438;-45
2021/07/31 04:42:48;;;;;;;3.80;2.80;;;20.20;99.90;;;;;;6158446;23;20694;-46
2021/07/31 04:45:15;;;;;;;7.10;2.50;;;20.20;99.90;;;;;;6157449;23;20406;-45
2021/07/31 04:47:44;;;;;;;2.80;2.60;;;20.20;99.90;;;;;;6158412;23;20888;-45
2021/07/31 04:50:13;;;;;;;4.50;2.90;;;20.20;99.90;;;;;;6159177;23;20939;-45
2021/07/31 04:52:39;;;;;;;2.40;2.10;;;20.20;99.90;;;;;;6159102;23;20481;-48
2021/07/31 04:55:07;;;;;;;5.07;2.13;;;20.20;99.90;;;;;;6158557;23;20416;-49
2021/07/31 04:57:34;;;;;;;4.73;3.10;;;20.30;99.90;;;;;;6158505;23;20480;-51
2021/07/31 05:00:01;;;;;;;6.23;2.20;;;20.20;99.90;;;;;;6158700;23;20406;-46
2021/07/31 05:02:31;;;;;;;5.10;2.63;;;20.30;99.90;;;;;;6158631;23;20757;-51
2021/07/31 05:05:02;;;;;;;5.27;2.60;;;20.30;99.90;;;;;;6158375;23;20406;-46
2021/07/31 05:07:29;;;;;;;3.70;2.00;;;20.30;99.90;;;;;;6158399;23;20392;-47
2021/07/31 05:09:56;;;;;;;2.70;1.80;;;20.40;99.90;;;;;;6158341;23;20409;-48
2021/07/31 05:12:22;;;;;;;5.87;2.90;;;20.40;99.90;;;;;;6158234;23;20476;-45
2021/07/31 05:14:51;;;;;;;3.83;2.13;;;20.40;99.90;;;;;;6158371;23;20406;-45
2021/07/31 05:17:20;;;;;;;2.03;1.83;;;20.50;99.90;;;;;;6158258;23;20484;-46
2021/07/31 05:19:46;;;;;;;5.70;1.57;;;20.40;99.90;;;;;;6157891;23;20442;-47
2021/07/31 05:22:15;;;;;;;4.17;2.53;;;20.50;99.90;;;;;;6157430;23;20501;-44
2021/07/31 05:24:42;;;;;;;3.10;2.30;;;20.60;99.90;;;;;;6157100;23;20528;-45
2021/07/31 05:27:08;;;;;;;2.47;1.70;;;20.60;99.90;;;;;;6158329;23;20741;-45
2021/07/31 05:29:35;;;;;;;3.13;2.17;;;20.70;99.90;;;;;;6158209;23;20932;-48
2021/07/31 05:32:02;;;;;;;3.00;1.83;;;20.70;99.90;;;;;;6159584;23;20409;-48
2021/07/31 05:34:29;;;;;;;2.30;1.80;;;20.70;99.90;;;;;;6158564;23;20422;-46
2021/07/31 05:36:56;;;;;;;5.50;2.07;;;20.70;99.90;;;;;;6158197;23;20406;-45
2021/07/31 05:39:24;;;;;;;4.10;2.10;;;20.70;99.90;;;;;;6157392;23;20959;-46
2021/07/31 05:41:50;;;;;;;13.33;7.33;;;20.80;99.90;;;;;;6158084;23;20409;-51
2021/07/31 05:44:17;;;;;;;6.23;3.50;;;20.80;99.90;;;;;;6158264;23;20414;-44
2021/07/31 05:46:44;;;;;;;13.20;4.87;;;20.80;99.90;;;;;;6158064;23;20405;-46
2021/07/31 05:49:10;;;;;;;7.83;3.87;;;20.80;99.90;;;;;;6160077;23;20521;-44
2021/07/31 05:51:38;;;;;;;20.43;11.70;;;20.70;99.90;;;;;;6160963;23;20421;-45
2021/07/31 05:54:05;;;;;;;9.80;7.40;;;20.80;99.90;;;;;;6161492;23;20488;-46
2021/07/31 05:56:33;;;;;;;4.30;2.30;;;20.80;99.90;;;;;;6161305;23;20410;-44
2021/07/31 05:58:59;;;;;;;3.63;2.43;;;20.80;99.90;;;;;;6161822;23;20441;-44
2021/07/31 06:01:26;;;;;;;10.33;2.50;;;20.80;99.90;;;;;;6162076;23;20413;-46
2021/07/31 06:03:53;;;;;;;3.40;2.20;;;20.80;99.90;;;;;;6161913;23;20406;-44
2021/07/31 06:06:19;;;;;;;4.70;2.37;;;20.90;99.90;;;;;;6161923;23;20480;-43
2021/07/31 06:08:46;;;;;;;4.40;2.67;;;20.90;99.90;;;;;;6162990;23;20503;-43
2021/07/31 06:11:13;;;;;;;7.43;2.90;;;20.80;99.90;;;;;;6163636;23;20406;-50
2021/07/31 06:13:41;;;;;;;15.80;2.80;;;20.90;99.90;;;;;;6161062;23;20409;-44
2021/07/31 06:16:09;;;;;;;4.70;2.00;;;20.90;99.90;;;;;;6160585;23;20418;-51
2021/07/31 06:18:39;;;;;;;2.10;1.83;;;21.00;99.90;;;;;;6160908;23;20487;-45
2021/07/31 06:21:06;;;;;;;2.37;2.13;;;21.00;99.90;;;;;;6159828;23;20402;-44
2021/07/31 06:23:33;;;;;;;1.40;1.13;;;21.00;99.90;;;;;;6159271;23;20406;-44
2021/07/31 06:26:01;;;;;;;3.57;1.40;;;21.00;99.90;;;;;;6161640;23;20470;-47
2021/07/31 06:28:28;;;;;;;2.77;1.63;;;21.00;99.90;;;;;;6160938;23;20393;-46
2021/07/31 06:30:59;;;;;;;4.20;1.97;;;21.00;99.90;;;;;;6160394;23;20410;-48
2021/07/31 06:33:26;;;;;;;2.00;1.43;;;21.00;99.90;;;;;;6160091;23;20452;-47
2021/07/31 06:35:52;;;;;;;6.60;1.77;;;21.00;99.90;;;;;;6160193;23;20405;-47
2021/07/31 06:38:19;;;;;;;2.00;1.80;;;21.00;99.90;;;;;;6160031;23;20959;-45
2021/07/31 06:40:46;;;;;;;6.63;2.07;;;21.00;99.90;;;;;;6159539;23;20433;-48
2021/07/31 06:43:12;;;;;;;5.03;1.77;;;21.10;99.90;;;;;;6159651;23;20421;-50
2021/07/31 06:45:41;;;;;;;2.63;1.90;;;21.20;99.90;;;;;;6159988;23;20414;-49
2021/07/31 06:48:09;;;;;;;4.07;2.17;;;21.10;99.90;;;;;;6159914;23;20418;-47
2021/07/31 06:50:36;;;;;;;1.73;1.50;;;21.10;99.90;;;;;;6159993;23;20418;-49
2021/07/31 06:53:02;;;;;;;2.77;1.40;;;21.10;99.90;;;;;;6159958;23;20413;-44
2021/07/31 06:55:29;;;;;;;4.57;1.80;;;21.20;99.90;;;;;;6160006;23;20410;-50
2021/07/31 06:57:57;;;;;;;2.47;1.33;;;21.20;99.90;;;;;;6159472;23;20962;-45
2021/07/31 07:00:24;;;;;;;3.77;1.47;;;21.30;99.90;;;;;;6158916;23;21028;-46
2021/07/31 07:02:51;;;;;;;5.43;1.30;;;21.30;99.90;;;;;;6158040;23;20915;-49
2021/07/31 07:05:19;;;;;;;1.77;1.30;;;21.40;99.90;;;;;;6158526;23;20431;-47
2021/07/31 07:07:45;;;;;;;3.77;1.60;;;21.50;99.90;;;;;;6158239;23;20406;-45
2021/07/31 07:10:15;;;;;;;3.17;1.80;;;21.50;99.90;;;;;;6158274;23;20406;-49
2021/07/31 07:12:42;;;;;;;2.23;1.80;;;21.60;99.90;;;;;;6158316;23;20421;-52
2021/07/31 07:15:10;;;;;;;5.50;1.50;;;21.70;99.90;;;;;;6158314;23;20476;-46
2021/07/31 07:17:36;;;;;;;2.50;1.83;;;21.70;99.90;;;;;;6157952;23;20402;-46
2021/07/31 07:20:03;;;;;;;2.23;1.60;;;21.80;99.90;;;;;;6158142;23;20464;-46
2021/07/31 07:22:31;;;;;;;2.30;1.40;;;21.80;99.90;;;;;;6158177;23;20482;-49
2021/07/31 07:24:58;;;;;;;3.13;2.23;;;21.90;99.90;;;;;;6158233;23;20414;-46
2021/07/31 07:27:25;;;;;;;3.87;2.50;;;22.40;99.90;;;;;;6157750;23;20409;-49
2021/07/31 07:29:51;;;;;;;4.80;2.00;;;23.70;99.60;;;;;;6158073;23;20405;-51
2021/07/31 07:32:18;;;;;;;3.03;1.70;;;25.10;95.00;;;;;;6157786;23;20406;-45
2021/07/31 07:34:45;;;;;;;9.03;2.30;;;26.30;91.60;;;;;;6158077;23;20472;-46
2021/07/31 07:37:11;;;;;;;6.17;2.50;;;27.60;82.80;;;;;;6158064;23;20409;-49
2021/07/31 07:39:39;;;;;;;4.57;1.90;;;27.80;77.20;;;;;;6157281;23;20453;-46
2021/07/31 07:42:07;;;;;;;2.77;2.10;;;27.30;74.40;;;;;;6157745;23;20402;-47
2021/07/31 07:44:34;;;;;;;2.23;1.87;;;26.50;76.50;;;;;;6159138;23;20406;-47
2021/07/31 07:47:01;;;;;;;2.63;1.50;;;26.10;78.10;;;;;;6158359;23;20492;-46
2021/07/31 07:49:28;;;;;;;8.13;2.70;;;26.10;77.00;;;;;;6157549;23;20417;-50
2021/07/31 07:51:54;;;;;;;2.80;1.70;;;26.90;74.20;;;;;;6157852;23;20418;-49
2021/07/31 07:54:21;;;;;;;3.50;1.80;;;28.10;69.00;;;;;;6157438;23;20413;-50
2021/07/31 07:56:49;;;;;;;4.33;1.67;;;29.20;64.70;;;;;;6157895;23;20468;-47
2021/07/31 07:59:16;;;;;;;3.47;1.70;;;30.00;60.00;;;;;;6157405;23;21014;-49
2021/07/31 08:01:45;;;;;;;2.60;1.80;;;30.40;57.40;;;;;;6157883;23;20907;-52
2021/07/31 08:04:12;;;;;;;3.20;1.80;;;30.70;56.70;;;;;;6157828;23;20402;-51
2021/07/31 08:06:39;;;;;;;4.10;1.50;;;31.70;54.40;;;;;;6157706;23;20679;-51
2021/07/31 08:09:05;;;;;;;3.13;1.60;;;32.50;51.30;;;;;;6157756;23;20413;-52
2021/07/31 08:11:32;;;;;;;3.63;1.47;;;32.50;50.40;;;;;;6157079;23;20426;-50
2021/07/31 08:14:00;;;;;;;3.93;1.70;;;32.90;50.00;;;;;;6157235;23;20927;-48
2021/07/31 08:16:27;;;;;;;2.80;1.70;;;33.10;49.10;;;;;;6157691;23;20748;-45
2021/07/31 08:18:54;;;;;;;6.03;1.73;;;33.00;48.30;;;;;;6157457;23;20579;-47
2021/07/31 08:21:20;;;;;;;2.30;1.80;;;33.00;47.90;;;;;;6157630;23;20460;-48
2021/07/31 08:23:47;;;;;;;4.60;1.90;;;32.10;47.80;;;;;;6157532;23;20456;-45
2021/07/31 08:26:16;;;;;;;5.20;2.53;;;31.90;47.90;;;;;;6157171;23;20405;-49
2021/07/31 08:28:43;;;;;;;5.60;3.30;;;31.00;48.70;;;;;;6157521;23;20418;-47
2021/07/31 08:31:12;;;;;;;6.37;3.40;;;29.70;50.70;;;;;;6157299;23;20405;-50
2021/07/31 08:33:39;;;;;;;3.93;2.20;;;28.80;52.60;;;;;;6157250;23;20424;-45
2021/07/31 08:36:08;;;;;;;2.80;2.07;;;28.80;52.90;;;;;;6157405;23;20441;-49
2021/07/31 08:38:35;;;;;;;7.43;1.47;;;28.30;53.20;;;;;;6156243;23;20405;-50
2021/07/31 08:41:03;;;;;;;2.30;1.53;;;28.20;53.20;;;;;;6157062;23;20430;-45
2021/07/31 08:43:30;;;;;;;3.73;1.73;;;28.80;53.10;;;;;;6157464;23;20418;-43
2021/07/31 08:45:58;;;;;;;2.37;1.30;;;29.60;51.80;;;;;;6157546;23;20705;-45
2021/07/31 08:48:29;;;;;;;3.87;1.80;;;29.80;51.10;;;;;;6157718;23;20406;-47
2021/07/31 08:50:58;;;;;;;2.70;1.97;;;30.40;50.90;;;;;;6157740;23;20873;-48
2021/07/31 08:53:26;;;;;;;5.40;2.10;;;31.30;49.30;;;;;;6158498;23;20406;-44
2021/07/31 08:55:53;;;;;;;3.10;1.93;;;31.80;48.40;;;;;;6158070;23;20405;-46
2021/07/31 08:58:19;;;;;;;3.37;2.20;;;32.20;47.90;;;;;;6157335;23;20406;-44
2021/07/31 09:00:46;;;;;;;6.33;2.07;;;32.40;47.40;;;;;;6157305;23;20460;-47
2021/07/31 09:03:15;;;;;;;3.40;2.10;;;32.70;46.80;;;;;;6157293;23;20405;-48
2021/07/31 09:05:43;;;;;;;2.50;1.47;;;33.10;46.70;;;;;;6157206;23;20889;-50
2021/07/31 09:08:11;;;;;;;2.50;1.43;;;32.80;46.70;;;;;;6156792;23;20453;-49
2021/07/31 09:10:39;;;;;;;3.13;1.80;;;32.80;46.80;;;;;;6157262;23;20459;-49
2021/07/31 09:13:07;;;;;;;3.30;1.83;;;32.80;46.50;;;;;;6157155;23;20406;-47
2021/07/31 09:15:39;;;;;;;3.57;1.90;;;32.10;47.60;;;;;;6157086;23;20465;-47
2021/07/31 09:18:26;;;;;;;2.77;2.17;;;30.70;49.00;;;;;;6157093;23;20428;-47
2021/07/31 09:21:07;;;;;;;2.50;1.87;;;30.50;50.10;;;;;;6157016;23;20724;-46
2021/07/31 09:23:45;;;;;;;2.60;1.73;;;30.00;50.50;;;;;;6156676;23;20393;-42
2021/07/31 09:26:13;;;;;;;3.13;1.77;;;29.50;50.80;;;;;;6157040;23;20471;-45
2021/07/31 09:28:42;;;;;;;4.00;1.70;;;29.70;50.90;;;;;;6156561;23;20441;-50
2021/07/31 09:31:10;;;;;;;2.70;1.87;;;29.90;50.30;;;;;;6157040;23;20445;-49
2021/07/31 09:33:41;;;;;;;2.50;1.50;;;30.00;50.50;;;;;;6157013;23;20405;-49
2021/07/31 09:36:09;;;;;;;5.83;1.80;;;30.30;49.80;;;;;;6157018;23;20448;-52
2021/07/31 09:38:37;;;;;;;4.73;2.47;;;30.10;49.70;;;;;;6156999;23;20406;-48
2021/07/31 09:41:28;;;;;;;3.47;1.93;;;30.00;49.70;;;;;;6156286;23;20511;-50
2021/07/31 09:44:04;;;;;;;3.53;2.43;;;30.60;50.10;;;;;;6156993;23;20402;-46
2021/07/31 09:46:35;;;;;;;1.80;1.40;;;31.40;47.80;;;;;;6156955;23;20389;-49
2021/07/31 09:49:03;;;;;;;3.00;2.40;;;31.00;47.50;;;;;;6156503;23;20417;-48
2021/07/31 09:51:36;;;;;;;2.40;1.87;;;30.00;48.20;;;;;;6156882;23;20761;-45
2021/07/31 09:54:06;;;;;;;3.37;1.80;;;29.70;49.50;;;;;;6156922;23;20476;-45
2021/07/31 09:56:38;;;;;;;3.30;1.73;;;29.60;49.30;;;;;;6156972;23;20475;-46
2021/07/31 09:59:06;;;;;;;2.60;1.87;;;28.80;50.60;;;;;;6156876;23;20456;-48
2021/07/31 10:01:36;;;;;;;4.50;1.90;;;28.10;51.70;;;;;;6156392;23;20712;-48
2021/07/31 10:04:03;;;;;;;2.30;2.00;;;27.60;52.80;;;;;;6156877;23;20433;-46
2021/07/31 10:06:32;;;;;;;3.60;2.10;;;27.50;52.70;;;;;;6156874;23;20438;-48
2021/07/31 10:09:02;;;;;;;1.73;1.43;;;27.70;53.30;;;;;;6156778;23;20417;-45
2021/07/31 10:11:29;;;;;;;6.50;1.63;;;27.80;53.90;;;;;;6156863;23;20409;-47
2021/07/31 10:13:56;;;;;;;3.10;1.80;;;27.90;53.40;;;;;;6156777;23;20708;-47
2021/07/31 10:16:23;;;;;;;2.50;1.40;;;28.10;52.80;;;;;;6156494;23;20877;-45
2021/07/31 10:18:58;;;;;;;4.57;2.13;;;27.80;53.00;;;;;;6156484;23;20421;-48
2021/07/31 10:21:26;;;;;;;8.63;2.10;;;27.70;53.40;;;;;;6156735;23;20760;-45
2021/07/31 10:24:03;;;;;;;2.10;1.30;;;27.80;53.10;;;;;;6156357;23;20464;-45
2021/07/31 10:26:31;;;;;;;3.67;1.40;;;27.60;52.60;;;;;;6156779;23;20413;-46
2021/07/31 10:29:27;;;;;;;2.23;1.67;;;27.50;52.90;;;;;;6156359;23;20421;-48
2021/07/31 10:31:55;;;;;;;6.57;1.57;;;27.10;54.40;;;;;;6137792;23;20406;-47
2021/07/31 10:34:46;;;;;;;2.37;2.10;;;26.90;55.20;;;;;;6157085;23;20504;-48
2021/07/31 10:37:45;;;;;;;4.13;2.30;;;26.90;55.20;;;;;;6158670;23;20766;-47
2021/07/31 10:40:54;;;;;;;3.23;1.77;;;26.80;54.70;;;;;;6158135;23;20446;-49
2021/07/31 10:43:23;;;;;;;2.90;1.90;;;26.30;55.90;;;;;;6158116;23;20421;-48
2021/07/31 10:45:50;;;;;;;5.20;2.37;;;26.00;56.90;;;;;;6158472;23;20410;-46
2021/07/31 10:48:37;;;;;;;6.03;1.73;;;25.70;57.10;;;;;;6158133;23;20440;-49
2021/07/31 10:51:05;;;;;;;2.00;1.47;;;25.30;57.70;;;;;;6148755;23;20449;-51
2021/07/31 10:53:48;;;;;;;2.60;1.50;;;24.90;58.30;;;;;;6158105;23;20904;-49
2021/07/31 10:56:16;;;;;;;2.33;1.80;;;24.70;58.90;;;;;;6158384;23;20521;-51
2021/07/31 10:59:18;;;;;;;2.27;1.50;;;24.50;59.80;;;;;;6158029;23;20485;-49
2021/07/31 11:01:44;;;;;;;1.80;1.50;;;24.40;59.60;;;;;;6158376;23;20401;-49
2021/07/31 11:04:50;;;;;;;2.30;1.47;;;24.30;60.00;;;;;;6157870;23;20416;-45
2021/07/31 11:07:16;;;;;;;10.97;1.50;;;24.20;59.30;;;;;;6157825;23;20422;-45
2021/07/31 11:10:22;;;;;;;5.07;1.30;;;24.30;59.50;;;;;;6157867;23;20890;-48
2021/07/31 11:12:50;;;;;;;3.80;2.57;;;24.50;60.00;;;;;;6157615;23;20413;-48
2021/07/31 11:15:17;;;;;;;2.90;1.73;;;24.70;60.20;;;;;;6158137;23;20477;-45
2021/07/31 11:17:44;;;;;;;2.07;1.30;;;24.70;60.50;;;;;;6157844;23;20873;-49
2021/07/31 11:20:28;;;;;;;1.50;1.40;;;24.90;60.00;;;;;;6158013;23;20437;-48
2021/07/31 11:22:57;;;;;;;7.10;2.10;;;25.10;60.00;;;;;;6157657;23;20409;-49
2021/07/31 11:25:24;;;;;;;3.33;1.37;;;25.50;60.50;;;;;;6157789;23;20406;-49
2021/07/31 11:27:57;;;;;;;1.77;1.67;;;25.90;59.60;;;;;;6158081;23;20410;-46
2021/07/31 11:30:37;;;;;;;4.60;2.00;;;26.00;59.20;;;;;;6158142;23;20472;-48
2021/07/31 11:33:26;;;;;;;4.93;1.47;;;26.00;59.10;;;;;;6158219;23;20406;-46
2021/07/31 11:35:54;;;;;;;2.40;1.70;;;26.20;58.30;;;;;;6158084;23;20484;-51
2021/07/31 11:38:33;;;;;;;3.80;1.30;;;26.30;57.30;;;;;;6158042;23;20433;-47
2021/07/31 11:41:02;;;;;;;4.33;1.60;;;26.40;57.80;;;;;;6157413;23;20445;-50
2021/07/31 11:43:41;;;;;;;1.90;1.67;;;26.20;57.80;;;;;;6157573;23;20940;-48
2021/07/31 11:46:08;;;;;;;2.40;1.53;;;26.10;58.00;;;;;;6157181;23;20452;-48
2021/07/31 11:48:35;;;;;;;2.47;2.27;;;26.00;57.40;;;;;;6157992;23;20426;-48
2021/07/31 11:51:02;;;;;;;2.70;1.30;;;25.70;57.30;;;;;;6157904;23;20409;-52
2021/07/31 11:53:29;;;;;;;2.53;1.57;;;25.30;58.10;;;;;;6157800;23;20409;-47
2021/07/31 11:56:13;;;;;;;3.13;1.70;;;25.10;58.60;;;;;;6157839;23;20490;-46
2021/07/31 11:58:42;;;;;;;3.00;1.23;;;25.10;59.20;;;;;;6157756;23;20425;-44
2021/07/31 12:01:09;;;;;;;7.20;5.20;;;25.00;59.30;;;;;;6157688;23;20437;-46
2021/07/31 12:03:43;;;;;;;5.33;1.40;;;24.90;59.70;;;;;;6157800;23;20865;-50
2021/07/31 12:06:29;;;;;;;4.77;1.43;;;24.90;59.80;;;;;;6157673;23;20406;-50
2021/07/31 12:08:57;;;;;;;4.77;2.00;;;24.90;59.50;;;;;;6157701;23;20417;-45
2021/07/31 12:11:34;;;;;;;3.20;1.77;;;25.20;60.20;;;;;;6157737;23;20444;-47
2021/07/31 12:14:17;;;;;;;2.30;1.30;;;25.40;59.30;;;;;;6157748;23;20394;-50
2021/07/31 12:16:44;;;;;;;2.73;1.60;;;25.40;58.10;;;;;;6157075;23;20426;-51
2021/07/31 12:19:11;;;;;;;4.43;1.33;;;25.40;57.70;;;;;;6157668;23;20405;-52
2021/07/31 12:21:37;;;;;;;3.63;1.27;;;25.30;57.80;;;;;;6157474;23;20523;-47
2021/07/31 12:24:05;;;;;;;1.70;1.60;;;25.10;58.00;;;;;;6157173;23;20487;-48
2021/07/31 12:26:33;;;;;;;1.37;1.23;;;24.90;57.70;;;;;;6157515;23;20406;-48
2021/07/31 12:29:00;;;;;;;1.90;1.33;;;24.70;58.40;;;;;;6157462;23;20423;-46
2021/07/31 12:31:29;;;;;;;1.60;1.50;;;24.70;58.00;;;;;;6157102;23;20405;-48
2021/07/31 12:33:57;;;;;;;2.03;1.40;;;24.70;58.30;;;;;;6157401;23;20421;-49
2021/07/31 12:36:24;;;;;;;2.00;1.30;;;24.70;58.40;;;;;;6157410;23;20468;-44
2021/07/31 12:38:54;;;;;;;2.00;1.40;;;24.60;58.10;;;;;;6157458;23;20409;-45
2021/07/31 12:41:24;;;;;;;6.43;1.93;;;24.50;58.10;;;;;;6156738;23;20491;-46
2021/07/31 12:43:50;;;;;;;1.80;1.40;;;24.50;59.30;;;;;;6157386;23;20416;-52
2021/07/31 12:46:19;;;;;;;2.93;1.37;;;24.60;59.50;;;;;;6157433;23;20410;-47
2021/07/31 12:48:48;;;;;;;3.70;1.77;;;24.60;59.60;;;;;;6157345;23;20737;-45
2021/07/31 12:51:14;;;;;;;1.90;1.50;;;24.60;60.00;;;;;;6156895;23;20456;-44
2021/07/31 12:53:44;;;;;;;4.17;1.40;;;24.50;59.80;;;;;;6157256;23;20493;-49